Time;durP1;ratioP1;P1;durP2;ratioP2;P2;SDS_P1;SDS_P2;PMS_P1;PMS_P2;Temp;Humidity;BMP_temperature;BMP_pressure;BME280_temperature;BME280_humidity;BME280_pressure;Samples;Min_cycle;Max_cycle;Signal;HPM_P1;HPM_P2
2023/08/30 00:01:59;;;;;;;3.15;1.88;;;;;;;;;;5127886;27;20049;-61
2023/08/30 00:04:25;;;;;;;3.05;2.55;;;;;;;;;;5101786;28;20035;-61
2023/08/30 00:06:51;;;;;;;5.15;2.45;;;;;;;;;;5131194;27;20030;-61
2023/08/30 00:09:17;;;;;;;4.90;2.30;;;;;;;;;;5123769;27;20038;-61
2023/08/30 00:11:43;;;;;;;4.32;2.28;;;;;;;;;;5129017;27;20027;-61
2023/08/30 00:14:09;;;;;;;5.55;2.28;;;;;;;;;;5098818;27;20027;-61
2023/08/30 00:16:35;;;;;;;4.20;2.20;;;;;;;;;;5122979;27;20484;-61
2023/08/30 00:19:01;;;;;;;5.32;2.63;;;;;;;;;;5099923;27;20472;-61
2023/08/30 00:21:27;;;;;;;3.40;1.88;;;;;;;;;;5125808;27;20037;-61
2023/08/30 00:23:53;;;;;;;3.58;2.20;;;;;;;;;;5107019;27;20036;-61
2023/08/30 00:26:19;;;;;;;6.60;2.60;;;;;;;;;;5136906;27;20023;-61
2023/08/30 00:28:45;;;;;;;4.68;2.30;;;;;;;;;;5127640;27;20035;-61
2023/08/30 00:31:11;;;;;;;4.85;2.67;;;;;;;;;;5132026;27;20024;-60
2023/08/30 00:33:37;;;;;;;5.28;2.20;;;;;;;;;;5118706;27;20103;-61
2023/08/30 00:36:03;;;;;;;4.75;2.38;;;;;;;;;;5117728;27;20024;-61
2023/08/30 00:38:29;;;;;;;4.32;2.60;;;;;;;;;;5116519;27;20047;-60
2023/08/30 00:40:55;;;;;;;7.93;2.72;;;;;;;;;;5114607;28;20036;-61
2023/08/30 00:43:21;;;;;;;4.63;2.53;;;;;;;;;;5116602;28;20385;-61
2023/08/30 00:45:48;;;;;;;4.53;2.50;;;;;;;;;;5113807;27;20023;-60
2023/08/30 00:48:15;;;;;;;5.95;2.97;;;;;;;;;;5115549;28;20035;-61
2023/08/30 00:50:42;;;;;;;4.65;2.75;;;;;;;;;;5097987;28;20020;-61
2023/08/30 00:53:09;;;;;;;7.53;2.90;;;;;;;;;;5114463;28;20024;-61
2023/08/30 00:55:35;;;;;;;4.95;2.22;;;;;;;;;;5114346;28;20078;-61
2023/08/30 00:58:02;;;;;;;6.18;2.90;;;;;;;;;;5111176;27;20122;-61
2023/08/30 01:00:31;;;;;;;5.30;2.88;;;;;;;;;;5107341;28;20103;-61
2023/08/30 01:02:58;;;;;;;5.78;2.67;;;;;;;;;;5108006;28;20039;-60
2023/08/30 01:05:24;;;;;;;3.42;2.25;;;;;;;;;;5095995;28;20019;-61
2023/08/30 01:07:51;;;;;;;5.35;2.92;;;;;;;;;;5114635;28;20020;-61
2023/08/30 01:10:17;;;;;;;4.15;2.20;;;;;;;;;;5100770;28;20466;-60
2023/08/30 01:12:50;;;;;;;3.30;2.22;;;;;;;;;;5100685;28;20078;-61
2023/08/30 01:15:19;;;;;;;4.18;2.47;;;;;;;;;;5110867;27;20020;-61
2023/08/30 01:17:45;;;;;;;3.33;2.10;;;;;;;;;;5112620;28;20119;-61
2023/08/30 01:20:15;;;;;;;5.13;3.00;;;;;;;;;;5096149;28;20029;-61
2023/08/30 01:23:01;;;;;;;5.78;3.00;;;;;;;;;;5112326;28;20366;-61
2023/08/30 01:25:30;;;;;;;7.03;2.58;;;;;;;;;;5115699;28;20024;-61
2023/08/30 01:27:56;;;;;;;5.32;3.10;;;;;;;;;;5115259;28;20031;-61
2023/08/30 01:30:23;;;;;;;4.07;3.53;;;;;;;;;;5101533;28;20020;-61
2023/08/30 01:32:50;;;;;;;5.45;3.47;;;;;;;;;;5099445;28;20327;-61
2023/08/30 01:35:19;;;;;;;6.07;3.17;;;;;;;;;;5119064;27;20426;-61
2023/08/30 01:37:48;;;;;;;4.82;2.70;;;;;;;;;;5106275;27;20096;-61
2023/08/30 01:40:15;;;;;;;5.22;2.42;;;;;;;;;;5124382;27;20087;-61
2023/08/30 01:42:44;;;;;;;5.57;2.95;;;;;;;;;;5122025;27;20489;-61
2023/08/30 01:45:13;;;;;;;5.10;2.85;;;;;;;;;;5129429;27;20026;-61
2023/08/30 01:47:39;;;;;;;5.70;2.60;;;;;;;;;;5131912;27;20032;-61
2023/08/30 01:50:05;;;;;;;6.05;2.80;;;;;;;;;;5136106;27;20033;-61
2023/08/30 01:52:32;;;;;;;3.25;2.30;;;;;;;;;;5131712;27;20106;-61
2023/08/30 01:54:58;;;;;;;4.03;2.60;;;;;;;;;;5119682;27;20464;-61
2023/08/30 01:57:24;;;;;;;3.60;2.63;;;;;;;;;;5109890;27;20019;-61
2023/08/30 01:59:52;;;;;;;4.03;2.50;;;;;;;;;;5111999;28;20066;-61
2023/08/30 02:02:18;;;;;;;4.15;2.97;;;;;;;;;;5109079;28;20135;-61
2023/08/30 02:04:44;;;;;;;4.10;2.35;;;;;;;;;;5093875;28;20073;-61
2023/08/30 02:07:30;;;;;;;3.42;2.35;;;;;;;;;;5106365;28;20625;-61
2023/08/30 02:10:02;;;;;;;3.33;2.40;;;;;;;;;;5066675;28;20105;-61
2023/08/30 02:12:32;;;;;;;4.40;2.17;;;;;;;;;;5100040;28;20028;-61
2023/08/30 02:14:59;;;;;;;4.13;2.55;;;;;;;;;;5102383;28;20069;-61
2023/08/30 02:17:25;;;;;;;3.90;2.40;;;;;;;;;;5104422;28;20024;-60
2023/08/30 02:19:53;;;;;;;5.03;2.70;;;;;;;;;;5093999;28;20028;-60
2023/08/30 02:22:20;;;;;;;2.75;2.42;;;;;;;;;;5114836;27;20089;-60
2023/08/30 02:24:46;;;;;;;3.83;2.33;;;;;;;;;;5106012;28;20046;-61
2023/08/30 02:27:12;;;;;;;5.25;2.17;;;;;;;;;;5084570;28;20530;-63
2023/08/30 02:29:38;;;;;;;3.70;2.10;;;;;;;;;;5098433;28;20066;-61
2023/08/30 02:32:06;;;;;;;5.93;2.90;;;;;;;;;;5103091;28;20055;-61
2023/08/30 02:34:32;;;;;;;4.22;2.65;;;;;;;;;;5109493;28;20043;-61
2023/08/30 02:36:58;;;;;;;4.40;2.50;;;;;;;;;;5112298;28;20370;-61
2023/08/30 02:39:25;;;;;;;4.72;2.38;;;;;;;;;;5094492;27;20393;-61
2023/08/30 02:41:51;;;;;;;5.03;2.10;;;;;;;;;;5126560;27;20476;-61
2023/08/30 02:44:17;;;;;;;3.40;2.63;;;;;;;;;;5131563;27;20027;-60
2023/08/30 02:46:43;;;;;;;6.28;2.72;;;;;;;;;;5118027;27;20420;-61
2023/08/30 02:49:11;;;;;;;6.32;3.45;;;;;;;;;;5118909;27;20024;-61
2023/08/30 02:51:37;;;;;;;3.40;1.92;;;;;;;;;;5130685;27;20028;-61
2023/08/30 02:54:03;;;;;;;4.03;2.45;;;;;;;;;;5129568;27;20107;-61
2023/08/30 02:56:29;;;;;;;5.47;2.83;;;;;;;;;;5124625;27;20045;-61
2023/08/30 02:58:55;;;;;;;5.13;2.17;;;;;;;;;;5113141;28;20545;-61
2023/08/30 03:01:21;;;;;;;4.60;2.90;;;;;;;;;;5093396;28;20081;-61
2023/08/30 03:03:47;;;;;;;3.35;2.10;;;;;;;;;;5105757;28;20034;-61
2023/08/30 03:06:14;;;;;;;3.72;2.60;;;;;;;;;;5092247;28;20019;-61
2023/08/30 03:08:40;;;;;;;5.22;2.17;;;;;;;;;;5095640;28;20032;-61
2023/08/30 03:11:13;;;;;;;3.13;2.03;;;;;;;;;;5093287;28;20020;-61
2023/08/30 03:13:39;;;;;;;3.83;2.50;;;;;;;;;;5101200;28;20034;-61
2023/08/30 03:16:11;;;;;;;3.95;2.45;;;;;;;;;;5109573;28;20027;-61
2023/08/30 03:18:38;;;;;;;3.88;2.25;;;;;;;;;;5100411;28;20359;-61
2023/08/30 03:21:04;;;;;;;4.13;2.10;;;;;;;;;;5081664;28;20384;-60
2023/08/30 03:23:31;;;;;;;5.60;2.10;;;;;;;;;;5097470;28;20126;-60
2023/08/30 03:25:57;;;;;;;4.25;2.40;;;;;;;;;;5093846;28;20103;-60
2023/08/30 03:28:23;;;;;;;2.67;2.20;;;;;;;;;;5107946;27;20562;-60
2023/08/30 03:30:49;;;;;;;3.17;2.17;;;;;;;;;;5123792;27;20091;-60
2023/08/30 03:33:15;;;;;;;3.45;2.33;;;;;;;;;;5109632;27;20077;-60
2023/08/30 03:35:41;;;;;;;8.88;2.78;;;;;;;;;;5121049;27;20402;-60
2023/08/30 03:38:07;;;;;;;3.10;2.30;;;;;;;;;;5100225;28;20030;-60
2023/08/30 03:40:33;;;;;;;5.68;2.42;;;;;;;;;;5129545;27;20099;-60
2023/08/30 03:42:59;;;;;;;3.72;2.13;;;;;;;;;;5122450;27;20032;-60
2023/08/30 03:45:25;;;;;;;3.20;2.55;;;;;;;;;;5113566;27;20023;-60
2023/08/30 03:47:51;;;;;;;4.80;2.33;;;;;;;;;;5094036;28;20696;-60
2023/08/30 03:50:17;;;;;;;4.35;2.80;;;;;;;;;;5129735;28;20023;-60
2023/08/30 03:52:43;;;;;;;5.72;2.58;;;;;;;;;;5127329;28;20023;-60
2023/08/30 03:55:09;;;;;;;5.28;2.55;;;;;;;;;;5120407;28;20030;-60
2023/08/30 03:57:35;;;;;;;3.55;2.55;;;;;;;;;;5095480;28;20100;-60
2023/08/30 04:00:02;;;;;;;4.20;2.83;;;;;;;;;;5080009;28;20422;-60
2023/08/30 04:02:29;;;;;;;4.20;2.33;;;;;;;;;;5108182;28;20412;-60
2023/08/30 04:04:55;;;;;;;2.75;2.22;;;;;;;;;;5130351;28;20024;-60
2023/08/30 04:07:21;;;;;;;6.80;3.08;;;;;;;;;;5117286;28;20052;-60
2023/08/30 04:09:47;;;;;;;4.15;2.47;;;;;;;;;;5123352;28;20065;-60
2023/08/30 04:12:13;;;;;;;3.78;3.05;;;;;;;;;;5118843;28;20024;-60
2023/08/30 04:14:39;;;;;;;4.38;2.53;;;;;;;;;;5095099;28;20122;-60
2023/08/30 04:17:05;;;;;;;4.78;2.75;;;;;;;;;;5114473;28;20496;-60
2023/08/30 04:19:31;;;;;;;4.13;2.10;;;;;;;;;;5110401;28;20161;-60
2023/08/30 04:21:57;;;;;;;4.07;2.28;;;;;;;;;;5109713;28;20043;-60
2023/08/30 04:24:23;;;;;;;4.80;2.53;;;;;;;;;;5114157;28;20461;-60
2023/08/30 04:26:51;;;;;;;6.72;2.70;;;;;;;;;;5126171;28;20021;-60
2023/08/30 04:29:17;;;;;;;6.20;2.55;;;;;;;;;;5094217;28;20020;-60
2023/08/30 04:31:43;;;;;;;4.47;2.58;;;;;;;;;;5092865;28;20046;-60
2023/08/30 04:34:09;;;;;;;4.65;2.25;;;;;;;;;;5095420;28;20197;-60
2023/08/30 04:36:35;;;;;;;3.65;1.80;;;;;;;;;;5104013;28;20063;-60
2023/08/30 04:39:02;;;;;;;3.58;2.22;;;;;;;;;;5108277;28;20114;-60
2023/08/30 04:41:28;;;;;;;7.63;2.22;;;;;;;;;;5105590;28;20059;-60
2023/08/30 04:43:54;;;;;;;4.38;1.70;;;;;;;;;;5092547;28;20055;-60
2023/08/30 04:46:20;;;;;;;4.25;2.03;;;;;;;;;;5092273;28;20048;-59
2023/08/30 04:48:46;;;;;;;3.67;1.75;;;;;;;;;;5095630;28;20496;-59
2023/08/30 04:51:12;;;;;;;4.97;1.85;;;;;;;;;;5116568;27;20034;-60
2023/08/30 04:53:39;;;;;;;4.68;2.22;;;;;;;;;;5120963;27;20027;-60
2023/08/30 04:56:12;;;;;;;3.03;2.38;;;;;;;;;;5097044;28;20020;-60
2023/08/30 04:58:39;;;;;;;4.37;2.03;;;;;;;;;;5096130;28;20047;-60
2023/08/30 05:01:05;;;;;;;5.30;1.80;;;;;;;;;;5095846;28;20027;-60
2023/08/30 05:03:31;;;;;;;4.93;1.75;;;;;;;;;;5096024;28;20040;-60
2023/08/30 05:05:57;;;;;;;5.60;2.53;;;;;;;;;;5095901;28;20050;-60
2023/08/30 05:08:23;;;;;;;4.45;1.88;;;;;;;;;;5095853;28;20036;-60
2023/08/30 05:10:49;;;;;;;5.25;2.65;;;;;;;;;;5099197;28;20033;-60
2023/08/30 05:13:16;;;;;;;2.75;1.55;;;;;;;;;;5118383;27;20381;-60
2023/08/30 05:15:43;;;;;;;3.40;1.88;;;;;;;;;;5119140;27;20016;-60
2023/08/30 05:18:08;;;;;;;4.35;2.33;;;;;;;;;;5095507;28;20462;-60
2023/08/30 05:20:34;;;;;;;3.40;2.25;;;;;;;;;;5095813;28;20028;-60
2023/08/30 05:23:00;;;;;;;2.85;2.15;;;;;;;;;;5095539;28;20036;-60
2023/08/30 05:25:27;;;;;;;4.72;2.15;;;;;;;;;;5088802;28;20016;-60
2023/08/30 05:27:53;;;;;;;2.58;2.38;;;;;;;;;;5112872;28;20111;-60
2023/08/30 05:30:19;;;;;;;3.40;2.05;;;;;;;;;;5127847;27;20023;-60
2023/08/30 05:32:45;;;;;;;4.55;2.30;;;;;;;;;;5113683;27;20156;-60
2023/08/30 05:35:11;;;;;;;3.53;2.47;;;;;;;;;;5136413;27;20106;-60
2023/08/30 05:37:37;;;;;;;2.95;2.55;;;;;;;;;;5097216;28;20465;-60
2023/08/30 05:40:03;;;;;;;5.75;3.55;;;;;;;;;;5134952;27;20015;-60
2023/08/30 05:42:30;;;;;;;5.13;3.17;;;;;;;;;;5135952;27;20035;-60
2023/08/30 05:44:56;;;;;;;5.07;3.40;;;;;;;;;;5136006;27;20015;-60
2023/08/30 05:47:22;;;;;;;3.50;3.20;;;;;;;;;;5133376;27;20050;-60
2023/08/30 05:49:48;;;;;;;8.65;3.85;;;;;;;;;;5123108;27;20023;-60
2023/08/30 05:52:16;;;;;;;5.68;4.13;;;;;;;;;;5135824;27;20027;-61
2023/08/30 05:54:42;;;;;;;5.18;3.55;;;;;;;;;;5135834;27;20072;-60
2023/08/30 05:57:08;;;;;;;4.15;2.85;;;;;;;;;;5135918;27;20380;-60
2023/08/30 05:59:35;;;;;;;4.25;2.85;;;;;;;;;;5135244;27;20457;-60
2023/08/30 06:02:01;;;;;;;4.18;2.72;;;;;;;;;;5135510;27;20023;-60
2023/08/30 06:04:27;;;;;;;5.10;2.47;;;;;;;;;;5127071;27;20028;-59
2023/08/30 06:06:53;;;;;;;3.55;2.60;;;;;;;;;;5114643;28;20042;-60
2023/08/30 06:09:19;;;;;;;5.55;3.25;;;;;;;;;;5097347;27;20476;-60
2023/08/30 06:11:45;;;;;;;5.70;2.63;;;;;;;;;;5135360;27;20023;-60
2023/08/30 06:14:11;;;;;;;6.65;2.47;;;;;;;;;;5135400;27;20500;-60
2023/08/30 06:16:37;;;;;;;3.63;2.95;;;;;;;;;;5135317;27;20499;-60
2023/08/30 06:19:03;;;;;;;3.63;2.70;;;;;;;;;;5130873;27;20026;-60
2023/08/30 06:21:29;;;;;;;5.75;2.92;;;;;;;;;;5132269;27;20418;-60
2023/08/30 06:23:55;;;;;;;3.90;2.85;;;;;;;;;;5120696;27;20085;-60
2023/08/30 06:26:21;;;;;;;6.28;3.10;;;;;;;;;;5112482;27;20111;-60
2023/08/30 06:28:47;;;;;;;5.93;3.25;;;;;;;;;;5094101;28;20051;-60
2023/08/30 06:31:13;;;;;;;5.18;3.85;;;;;;;;;;5101802;28;20095;-60
2023/08/30 06:33:40;;;;;;;6.95;3.50;;;;;;;;;;5127545;27;20115;-60
2023/08/30 06:36:06;;;;;;;5.32;3.30;;;;;;;;;;5088704;28;20032;-60
2023/08/30 06:38:32;;;;;;;8.02;3.88;;;;;;;;;;5094062;28;20016;-60
2023/08/30 06:40:58;;;;;;;7.22;4.03;;;;;;;;;;5108147;28;20023;-60
2023/08/30 06:43:24;;;;;;;7.25;4.10;;;;;;;;;;5093922;28;20118;-60
2023/08/30 06:45:51;;;;;;;4.40;3.35;;;;;;;;;;5100522;28;20016;-60
2023/08/30 06:48:17;;;;;;;8.77;4.65;;;;;;;;;;5093183;28;20020;-57
2023/08/30 06:50:43;;;;;;;5.60;3.83;;;;;;;;;;5109199;28;20062;-58
2023/08/30 06:53:09;;;;;;;5.82;3.92;;;;;;;;;;5092527;28;20649;-59
2023/08/30 06:55:36;;;;;;;5.35;3.78;;;;;;;;;;5105495;28;20077;-59
2023/08/30 06:58:03;;;;;;;5.15;3.50;;;;;;;;;;5110175;27;20020;-56
2023/08/30 07:00:29;;;;;;;8.02;3.85;;;;;;;;;;5108759;27;20031;-65
2023/08/30 07:02:56;;;;;;;8.68;3.95;;;;;;;;;;5114996;27;20040;-65
2023/08/30 07:05:23;;;;;;;3.65;3.35;;;;;;;;;;5126926;27;20502;-65
2023/08/30 07:07:49;;;;;;;5.88;3.42;;;;;;;;;;5122047;27;20018;-65
2023/08/30 07:10:15;;;;;;;3.97;2.90;;;;;;;;;;5124298;27;20035;-65
2023/08/30 07:12:41;;;;;;;4.03;3.13;;;;;;;;;;5101400;27;20011;-64
2023/08/30 07:15:07;;;;;;;4.30;2.80;;;;;;;;;;5121409;27;20054;-64
2023/08/30 07:17:33;;;;;;;4.50;2.65;;;;;;;;;;5109633;27;20098;-61
2023/08/30 07:19:59;;;;;;;5.90;2.88;;;;;;;;;;5108950;28;20027;-62
2023/08/30 07:22:25;;;;;;;5.35;3.03;;;;;;;;;;5108343;28;20292;-62
2023/08/30 07:24:51;;;;;;;5.15;3.72;;;;;;;;;;5112763;27;20477;-61
2023/08/30 07:27:17;;;;;;;6.13;3.70;;;;;;;;;;5128415;27;20106;-65
2023/08/30 07:29:43;;;;;;;8.18;3.47;;;;;;;;;;5113100;28;20114;-60
2023/08/30 07:32:10;;;;;;;5.57;3.90;;;;;;;;;;5119677;27;20055;-63
2023/08/30 07:34:36;;;;;;;7.10;3.90;;;;;;;;;;5119780;27;20021;-64
2023/08/30 07:37:02;;;;;;;4.65;3.60;;;;;;;;;;5133452;27;20019;-64
2023/08/30 07:39:28;;;;;;;5.55;3.85;;;;;;;;;;5122132;27;20031;-63
2023/08/30 07:41:54;;;;;;;3.95;3.47;;;;;;;;;;5110716;28;20039;-59
2023/08/30 07:44:20;;;;;;;5.25;3.95;;;;;;;;;;5112164;27;20038;-65
2023/08/30 07:46:46;;;;;;;9.73;4.72;;;;;;;;;;5098156;28;20048;-61
2023/08/30 07:49:12;;;;;;;6.72;4.03;;;;;;;;;;5130409;27;20031;-60
2023/08/30 07:51:38;;;;;;;7.93;4.30;;;;;;;;;;5132843;28;20019;-60
2023/08/30 07:54:04;;;;;;;9.05;4.15;;;;;;;;;;5126887;28;20023;-60
2023/08/30 07:56:30;;;;;;;12.32;4.70;;;;;;;;;;5124272;28;20027;-62
2023/08/30 07:58:57;;;;;;;11.00;4.85;;;;;;;;;;5111905;28;20102;-63
2023/08/30 08:01:23;;;;;;;8.25;4.35;;;;;;;;;;5117541;28;20028;-61
2023/08/30 08:03:49;;;;;;;6.93;4.10;;;;;;;;;;5130311;28;24029;-64
2023/08/30 08:06:15;;;;;;;6.43;4.60;;;;;;;;;;5098827;28;20024;-55
2023/08/30 08:08:41;;;;;;;6.45;4.15;;;;;;;;;;5110453;28;20024;-51
2023/08/30 08:11:07;;;;;;;8.50;4.57;;;;;;;;;;5112657;28;20473;-53
2023/08/30 08:13:33;;;;;;;7.53;3.70;;;;;;;;;;5126608;28;20032;-47
2023/08/30 08:15:59;;;;;;;10.00;5.38;;;;;;;;;;5110222;28;20026;-65
2023/08/30 08:18:26;;;;;;;5.95;3.97;;;;;;;;;;5122319;28;20481;-62
2023/08/30 08:20:52;;;;;;;5.63;4.10;;;;;;;;;;5106269;28;20051;-63
2023/08/30 08:23:18;;;;;;;4.93;3.97;;;;;;;;;;5106418;28;20035;-62
2023/08/30 08:25:44;;;;;;;5.50;3.33;;;;;;;;;;5137340;27;20019;-62
2023/08/30 08:28:10;;;;;;;6.03;3.47;;;;;;;;;;5132818;27;20037;-62
2023/08/30 08:30:37;;;;;;;7.50;4.72;;;;;;;;;;5115640;27;20028;-62
2023/08/30 08:33:03;;;;;;;5.72;4.00;;;;;;;;;;5118116;27;20366;-64
2023/08/30 08:35:29;;;;;;;4.68;3.65;;;;;;;;;;5120513;27;20114;-59
2023/08/30 08:37:55;;;;;;;5.50;3.55;;;;;;;;;;5122654;27;20137;-60
2023/08/30 08:40:21;;;;;;;6.65;3.17;;;;;;;;;;5134709;27;20466;-59
2023/08/30 08:42:50;;;;;;;7.28;2.90;;;;;;;;;;5107174;28;20032;-61
2023/08/30 08:45:17;;;;;;;6.38;3.00;;;;;;;;;;5120649;27;20114;-60
2023/08/30 08:47:43;;;;;;;4.65;2.80;;;;;;;;;;5113349;28;20046;-61
2023/08/30 08:50:09;;;;;;;4.80;2.55;;;;;;;;;;5129608;27;20016;-60
2023/08/30 08:52:35;;;;;;;6.63;2.97;;;;;;;;;;5132852;27;20016;-61
2023/08/30 08:55:02;;;;;;;3.88;2.88;;;;;;;;;;5124818;27;20041;-59
2023/08/30 08:57:31;;;;;;;3.30;2.53;;;;;;;;;;5130437;27;20028;-54
2023/08/30 08:59:57;;;;;;;4.03;1.98;;;;;;;;;;5124799;27;20051;-56
2023/08/30 09:02:23;;;;;;;3.92;1.90;;;;;;;;;;5134471;27;20050;-61
2023/08/30 09:04:50;;;;;;;2.88;2.47;;;;;;;;;;5129185;27;20361;-58
2023/08/30 09:07:16;;;;;;;4.45;2.85;;;;;;;;;;5104637;28;20523;-61
2023/08/30 09:09:42;;;;;;;4.80;3.13;;;;;;;;;;5123780;27;20430;-58
2023/08/30 09:12:08;;;;;;;4.47;3.40;;;;;;;;;;5122743;27;20012;-60
2023/08/30 09:14:34;;;;;;;6.80;2.90;;;;;;;;;;5114675;27;20073;-60
2023/08/30 09:17:01;;;;;;;4.35;3.03;;;;;;;;;;5130616;27;20023;-59
2023/08/30 09:19:27;;;;;;;3.75;2.58;;;;;;;;;;5125984;27;20076;-59
2023/08/30 09:21:54;;;;;;;2.85;2.65;;;;;;;;;;5123735;27;20015;-60
2023/08/30 09:24:20;;;;;;;4.43;2.60;;;;;;;;;;5102392;28;20438;-54
2023/08/30 09:26:50;;;;;;;11.25;3.03;;;;;;;;;;5130393;27;20027;-58
2023/08/30 09:29:20;;;;;;;2.97;2.47;;;;;;;;;;5135165;27;20030;-56
2023/08/30 09:31:46;;;;;;;3.03;2.63;;;;;;;;;;5124126;27;20064;-59
2023/08/30 09:34:12;;;;;;;4.35;2.58;;;;;;;;;;5130003;27;20035;-58
2023/08/30 09:36:39;;;;;;;3.53;2.45;;;;;;;;;;5132273;27;20604;-55
2023/08/30 09:39:12;;;;;;;6.43;2.85;;;;;;;;;;5119116;27;20080;-56
2023/08/30 09:41:46;;;;;;;3.88;2.33;;;;;;;;;;5115751;27;20052;-57
2023/08/30 09:44:14;;;;;;;3.03;2.13;;;;;;;;;;5115310;27;20148;-58
2023/08/30 09:46:44;;;;;;;3.78;2.63;;;;;;;;;;5115849;27;20048;-64
2023/08/30 09:49:11;;;;;;;2.53;2.30;;;;;;;;;;5113212;27;20503;-63
2023/08/30 09:51:41;;;;;;;5.05;2.75;;;;;;;;;;5110694;28;20020;-65
2023/08/30 09:54:07;;;;;;;5.80;3.85;;;;;;;;;;5094953;28;20438;-67
2023/08/30 09:56:35;;;;;;;6.22;2.55;;;;;;;;;;5102103;28;20099;-61
2023/08/30 09:59:02;;;;;;;6.88;2.60;;;;;;;;;;5094826;28;20085;-58
2023/08/30 10:01:28;;;;;;;4.00;2.25;;;;;;;;;;5094851;28;20020;-57
2023/08/30 10:03:55;;;;;;;4.40;2.50;;;;;;;;;;5094714;28;20085;-54
2023/08/30 10:06:22;;;;;;;5.07;2.20;;;;;;;;;;5109184;28;20020;-55
2023/08/30 10:08:49;;;;;;;4.47;2.08;;;;;;;;;;5094388;28;20095;-56
2023/08/30 10:11:17;;;;;;;5.43;2.55;;;;;;;;;;5094012;28;20073;-56
2023/08/30 10:13:43;;;;;;;3.42;3.00;;;;;;;;;;5089167;28;20016;-55
2023/08/30 10:16:12;;;;;;;4.18;3.20;;;;;;;;;;5108673;28;20034;-55
2023/08/30 10:18:39;;;;;;;5.15;3.03;;;;;;;;;;5094306;28;20020;-57
2023/08/30 10:21:08;;;;;;;4.93;2.58;;;;;;;;;;5094682;28;20032;-53
2023/08/30 10:23:34;;;;;;;5.15;2.85;;;;;;;;;;5096289;28;20028;-54
2023/08/30 10:26:01;;;;;;;4.90;2.53;;;;;;;;;;5106486;28;20047;-56
2023/08/30 10:28:27;;;;;;;4.32;2.60;;;;;;;;;;5094390;28;20031;-53
2023/08/30 10:30:53;;;;;;;4.55;2.45;;;;;;;;;;5094503;28;20016;-55
2023/08/30 10:33:25;;;;;;;4.03;2.40;;;;;;;;;;5094239;28;20020;-57
2023/08/30 10:35:51;;;;;;;4.13;2.50;;;;;;;;;;5094043;28;20008;-57
2023/08/30 10:38:39;;;;;;;3.92;2.38;;;;;;;;;;5094093;28;20539;-56
2023/08/30 10:41:09;;;;;;;1.90;1.70;;;;;;;;;;5093927;28;20016;-55
2023/08/30 10:43:37;;;;;;;4.25;2.30;;;;;;;;;;5093851;28;20028;-59
2023/08/30 10:46:06;;;;;;;2.30;2.10;;;;;;;;;;5081463;28;20074;-58
2023/08/30 10:48:39;;;;;;;3.47;1.85;;;;;;;;;;5095297;28;20093;-57
2023/08/30 10:51:06;;;;;;;2.65;2.13;;;;;;;;;;5093778;28;20535;-57
2023/08/30 10:53:33;;;;;;;16.23;3.40;;;;;;;;;;5093820;28;20024;-58
2023/08/30 10:56:10;;;;;;;18.98;4.90;;;;;;;;;;5108032;28;20093;-57
2023/08/30 10:58:41;;;;;;;3.28;1.27;;;;;;;;;;5093895;28;20413;-57
2023/08/30 11:01:10;;;;;;;4.43;1.90;;;;;;;;;;5093845;28;20040;-56
2023/08/30 11:03:36;;;;;;;3.45;1.50;;;;;;;;;;5085624;28;20490;-57
2023/08/30 11:06:03;;;;;;;2.08;1.63;;;;;;;;;;5093739;28;20024;-58
2023/08/30 11:08:30;;;;;;;4.40;1.75;;;;;;;;;;5093460;28;20579;-59
2023/08/30 11:11:05;;;;;;;5.65;2.10;;;;;;;;;;5093229;28;20028;-58
2023/08/30 11:13:31;;;;;;;4.78;1.42;;;;;;;;;;5093508;28;20024;-58
2023/08/30 11:16:04;;;;;;;2.30;0.95;;;;;;;;;;5093440;28;20024;-59
2023/08/30 11:18:30;;;;;;;1.50;1.40;;;;;;;;;;5093344;28;20386;-59
2023/08/30 11:21:01;;;;;;;1.23;0.98;;;;;;;;;;5093537;28;20024;-59
2023/08/30 11:23:27;;;;;;;2.25;0.65;;;;;;;;;;5095319;27;20034;-59
2023/08/30 11:25:53;;;;;;;0.80;0.77;;;;;;;;;;5119742;27;20035;-58
2023/08/30 11:28:25;;;;;;;2.83;0.80;;;;;;;;;;5112437;27;20035;-59
2023/08/30 11:30:55;;;;;;;1.73;1.10;;;;;;;;;;5115140;27;20022;-59
2023/08/30 11:33:21;;;;;;;3.28;1.27;;;;;;;;;;5114233;28;20093;-59
2023/08/30 11:35:52;;;;;;;3.47;1.20;;;;;;;;;;5120335;27;20035;-59
2023/08/30 11:38:18;;;;;;;1.88;0.80;;;;;;;;;;5109775;28;20028;-59
2023/08/30 11:40:45;;;;;;;1.80;1.23;;;;;;;;;;5098894;28;20020;-59
2023/08/30 11:43:11;;;;;;;1.30;1.20;;;;;;;;;;5106551;28;20036;-59
2023/08/30 11:45:37;;;;;;;1.48;0.93;;;;;;;;;;5099796;28;20111;-59
2023/08/30 11:48:03;;;;;;;3.20;1.50;;;;;;;;;;5092899;28;20460;-59
2023/08/30 11:50:29;;;;;;;6.10;3.72;;;;;;;;;;5092779;28;20020;-59
2023/08/30 11:52:56;;;;;;;3.17;2.65;;;;;;;;;;5107431;28;20419;-59
2023/08/30 11:55:22;;;;;;;2.47;1.38;;;;;;;;;;5092897;28;20024;-59
2023/08/30 11:57:51;;;;;;;4.47;1.27;;;;;;;;;;5092308;28;20382;-59
2023/08/30 12:00:19;;;;;;;3.17;1.73;;;;;;;;;;5092798;28;20366;-59
2023/08/30 12:02:46;;;;;;;1.83;1.73;;;;;;;;;;5121795;28;20046;-59
2023/08/30 12:05:13;;;;;;;3.15;1.67;;;;;;;;;;5094926;28;20051;-59
2023/08/30 12:07:40;;;;;;;3.67;1.80;;;;;;;;;;5100440;28;20428;-59
2023/08/30 12:10:07;;;;;;;2.90;0.85;;;;;;;;;;5106755;28;20024;-59
2023/08/30 12:12:36;;;;;;;1.45;1.13;;;;;;;;;;5092747;28;20016;-59
2023/08/30 12:15:02;;;;;;;2.25;1.67;;;;;;;;;;5092500;28;20024;-59
2023/08/30 12:17:28;;;;;;;1.50;1.23;;;;;;;;;;5092754;28;20086;-59
2023/08/30 12:19:57;;;;;;;6.82;1.50;;;;;;;;;;5092587;28;20039;-59
2023/08/30 12:22:24;;;;;;;3.97;1.58;;;;;;;;;;5094601;28;20020;-59
2023/08/30 12:24:50;;;;;;;1.95;1.00;;;;;;;;;;5099251;28;20097;-59
2023/08/30 12:27:16;;;;;;;2.97;1.30;;;;;;;;;;5111161;28;20426;-60
2023/08/30 12:29:42;;;;;;;4.35;1.75;;;;;;;;;;5098975;28;20032;-59
2023/08/30 12:32:08;;;;;;;5.22;1.80;;;;;;;;;;5092423;28;20033;-60
2023/08/30 12:34:34;;;;;;;1.98;1.75;;;;;;;;;;5094637;28;20040;-59
2023/08/30 12:37:01;;;;;;;2.70;1.48;;;;;;;;;;5109887;28;20373;-59
2023/08/30 12:39:28;;;;;;;1.70;1.58;;;;;;;;;;5098012;28;20024;-62
2023/08/30 12:41:54;;;;;;;6.18;1.10;;;;;;;;;;5092559;28;20149;-60
2023/08/30 12:44:20;;;;;;;2.80;1.38;;;;;;;;;;5094352;28;20023;-60
2023/08/30 12:46:46;;;;;;;3.00;2.10;;;;;;;;;;5101654;28;20056;-57
2023/08/30 12:49:12;;;;;;;1.23;1.23;;;;;;;;;;5092377;28;20141;-56
2023/08/30 12:51:38;;;;;;;2.10;1.42;;;;;;;;;;5092402;28;20028;-57
2023/08/30 12:54:04;;;;;;;2.13;1.08;;;;;;;;;;5093529;28;20082;-57
2023/08/30 12:56:30;;;;;;;2.40;1.38;;;;;;;;;;5092594;28;20102;-57
2023/08/30 12:58:56;;;;;;;1.90;1.58;;;;;;;;;;5092308;28;20027;-57
2023/08/30 13:01:24;;;;;;;2.10;1.00;;;;;;;;;;5092566;28;20078;-57
2023/08/30 13:03:50;;;;;;;1.65;1.55;;;;;;;;;;5092211;28;20104;-57
2023/08/30 13:06:16;;;;;;;2.53;1.30;;;;;;;;;;5092196;28;20107;-57
2023/08/30 13:08:42;;;;;;;2.53;2.22;;;;;;;;;;5095575;28;20441;-58
2023/08/30 13:11:08;;;;;;;3.50;3.20;;;;;;;;;;5100371;28;20024;-57
2023/08/30 13:13:34;;;;;;;1.27;1.25;;;;;;;;;;5096082;28;20411;-56
2023/08/30 13:16:00;;;;;;;2.90;2.55;;;;;;;;;;5095627;28;20028;-58
2023/08/30 13:18:26;;;;;;;2.85;2.65;;;;;;;;;;5095727;28;20083;-57
2023/08/30 13:20:55;;;;;;;3.85;2.70;;;;;;;;;;5095880;28;20067;-57
2023/08/30 13:23:21;;;;;;;2.40;2.22;;;;;;;;;;5095432;28;20106;-58
2023/08/30 13:25:48;;;;;;;1.52;1.40;;;;;;;;;;5095817;28;20028;-57
2023/08/30 13:28:14;;;;;;;1.38;1.35;;;;;;;;;;5100279;27;20028;-57
2023/08/30 13:30:47;;;;;;;2.70;1.48;;;;;;;;;;5119181;27;20377;-57
2023/08/30 13:33:13;;;;;;;4.20;1.77;;;;;;;;;;5124124;27;20396;-57
2023/08/30 13:35:41;;;;;;;2.10;2.00;;;;;;;;;;5095300;28;20020;-58
2023/08/30 13:38:07;;;;;;;2.65;2.15;;;;;;;;;;5095699;28;20393;-57
2023/08/30 13:40:34;;;;;;;1.77;1.67;;;;;;;;;;5095005;28;20016;-57
2023/08/30 13:42:59;;;;;;;2.28;2.08;;;;;;;;;;5095100;28;20528;-57
2023/08/30 13:45:25;;;;;;;3.50;3.30;;;;;;;;;;5095463;28;20109;-57
2023/08/30 13:47:53;;;;;;;1.98;1.83;;;;;;;;;;5094921;28;20374;-57
2023/08/30 13:50:19;;;;;;;2.60;2.40;;;;;;;;;;5095473;28;20032;-57
2023/08/30 13:52:45;;;;;;;2.50;2.40;;;;;;;;;;5123687;27;20020;-56
2023/08/30 13:55:11;;;;;;;2.10;2.00;;;;;;;;;;5116064;27;20031;-58
2023/08/30 13:57:37;;;;;;;2.00;1.90;;;;;;;;;;5106894;27;20021;-57
2023/08/30 14:00:09;;;;;;;1.40;1.30;;;;;;;;;;5119136;27;20058;-58
2023/08/30 14:02:35;;;;;;;1.03;1.03;;;;;;;;;;5094890;28;20081;-54
2023/08/30 14:05:02;;;;;;;1.58;1.40;;;;;;;;;;5095113;28;20258;-57
2023/08/30 14:07:28;;;;;;;3.10;1.70;;;;;;;;;;5094704;28;20046;-58
2023/08/30 14:09:54;;;;;;;1.88;1.77;;;;;;;;;;5105633;27;20070;-57
2023/08/30 14:12:20;;;;;;;3.10;1.55;;;;;;;;;;5105629;28;20019;-58
2023/08/30 14:14:46;;;;;;;2.00;1.90;;;;;;;;;;5096465;28;20092;-57
2023/08/30 14:17:12;;;;;;;2.15;1.10;;;;;;;;;;5105423;28;20020;-57
2023/08/30 14:19:38;;;;;;;2.75;2.55;;;;;;;;;;5094270;28;20027;-57
2023/08/30 14:22:05;;;;;;;1.60;1.50;;;;;;;;;;5096664;28;20080;-57
2023/08/30 14:24:32;;;;;;;1.98;1.50;;;;;;;;;;5113543;28;20042;-57
2023/08/30 14:26:58;;;;;;;1.30;1.30;;;;;;;;;;5094468;28;20469;-59
2023/08/30 14:29:24;;;;;;;1.40;1.30;;;;;;;;;;5094432;28;20529;-55
2023/08/30 14:31:50;;;;;;;1.13;1.13;;;;;;;;;;5094536;28;20051;-58
2023/08/30 14:34:16;;;;;;;1.90;1.67;;;;;;;;;;5094515;28;20469;-57
2023/08/30 14:36:42;;;;;;;2.67;1.20;;;;;;;;;;5094113;28;20027;-54
2023/08/30 14:39:09;;;;;;;3.00;1.35;;;;;;;;;;5094521;28;20347;-57
2023/08/30 14:41:38;;;;;;;2.15;1.88;;;;;;;;;;5093989;28;20031;-57